Aérodrome :
LOGIN :

S'inscrire | Disclaimer

   EN    FR    IT 

 










Légende :    VFR   VFR Marginal   IFR   IFR Intensif   IFR Très Intensif
Visi : 
Plafond : 
>= 8 km
>= 3000ft
5 à 8 km
1000 à 3000 ft
1500m à 5 km
500 à 1000 ft
800 à 1500m
200 à 500 ft
< 800m
< 200 ft
Symboles :   Orages  Brouillard  Fortes neiges  Fortes précipitations  Vent > 20 kt
SIGMETs :   Divers  Orages  Givrage  Turbulence  Onde Orograph.  Cendres Volcan.






- Altitude de l'aérodrome : 219 ft
- Code IATA : DNR


LFRD - Dinard

DERNIER METAR :
  • 271430Z AUTO 33017KT 9999 BKN026 BKN035 09/04 Q1010 NOSIG

METARs EXPIRÉS :
  • 271400Z AUTO 33017KT 9999 SCT025 BKN038 08/03 Q1009 TEMPO 32015G25KT
  • 271330Z AUTO 32019KT 9999 SCT023 BKN032 OVC039 08/04 Q1009 TEMPO 32015G25KT
  • 271300Z AUTO 32020KT 9999 BKN024 BKN030 OVC036 08/04 Q1008 BECMG 32015G25KT
  • 271230Z AUTO 33019KT 9999 OVC021 08/05 Q1007 BECMG 32015G25KT
  • 271200Z AUTO 32021KT 9999 BKN023 OVC029 08/05 Q1006 BECMG 32015G25KT

TAF AMD TAF LFRD
Valide du 27 à 12h jusqu'au 28 à 12h UTC


271207Z 2712/2812 32023G35KT 9999 BKN020
BECMG 2713/2715 32015G25KT
BECMG 2715/2717 31012KT
BECMG 2719/2721 VRB05KT
BECMG 2800/2802 17010KT
TEMPO 2804/2808 4000 RA
BECMG 2806/2808 OVC008
TEMPO 2806/2810 17015G25KT
TEMPO 2808/2812 4000 DZ BKN004
BECMG 2810/2812 22015G25KT
ATIS : +33 2 99 16 81 50



MET'MAP, la Météo Aéronautique d'un coup d'oeil ! - Copyright ORBIFLY Décembre 2007 - Disclaimer

ORBIFLY MET'MAP TEAM :

Programmation & Développement : Alexandra Zaïnal
Sur une idée originale de : Baudouin d'Aumeries
Assistance à la programmation : Marc-Olivier Méhu
Soutien technique & logistique : Manuel Goepfert

Contact : metmap@orbifly.com




SOURCES & CREDITS :

   NOAA